createdAt,value
2022-07-25T00:01:16.316Z,98467.72
2022-07-25T00:04:09.246Z,98478.94
2022-07-25T00:06:57.186Z,98372.72
2022-07-25T00:09:43.221Z,98463.25
2022-07-25T00:12:31.634Z,98467.41
2022-07-25T00:15:16.864Z,98313.97
2022-07-25T00:18:02.389Z,98460.06
2022-07-25T00:20:47.740Z,98453.59
2022-07-25T00:23:33.229Z,98285.28
2022-07-25T00:26:18.846Z,98324.34
2022-07-25T00:29:04.485Z,98325.78
2022-07-25T00:31:49.933Z,98454.94
2022-07-25T00:34:35.211Z,98406.16
2022-07-25T00:37:20.504Z,98350.13
2022-07-25T00:40:06.312Z,98326.25
2022-07-25T00:42:51.643Z,98447.78
2022-07-25T00:45:37.130Z,98304.78
2022-07-25T00:48:22.411Z,98428.41
2022-07-25T00:51:09.335Z,98292.19
2022-07-25T00:53:57.378Z,98320.41
2022-07-25T00:56:43.735Z,98489.53
2022-07-25T00:59:29.304Z,98307.25
2022-07-25T01:02:14.780Z,98288.56
2022-07-25T01:04:59.985Z,98293.25
2022-07-25T01:07:46.746Z,98336.25
2022-07-25T01:10:33.465Z,98317.28
2022-07-25T01:13:18.740Z,98381.34
2022-07-25T01:16:06.971Z,98377.00
2022-07-25T01:18:52.545Z,98336.53
2022-07-25T01:21:39.520Z,98318.94
2022-07-25T01:24:24.827Z,98477.16
2022-07-25T01:27:10.033Z,98308.22
2022-07-25T01:30:04.886Z,98431.97
2022-07-25T01:32:50.184Z,98446.75
2022-07-25T01:35:38.982Z,98459.19
2022-07-25T01:38:27.085Z,98478.38
2022-07-25T01:41:12.439Z,98454.31
2022-07-25T01:44:08.233Z,98450.16
2022-07-25T01:46:54.226Z,98480.09
2022-07-25T01:49:40.059Z,98451.84
2022-07-25T01:52:25.436Z,98463.31
2022-07-25T01:55:11.435Z,98321.44
2022-07-25T01:57:56.907Z,98371.66
2022-07-25T02:00:43.154Z,98260.09
2022-07-25T02:03:31.300Z,98461.34
2022-07-25T02:06:17.971Z,98442.28
2022-07-25T02:09:04.413Z,98454.31
2022-07-25T02:11:49.805Z,98293.66
2022-07-25T02:14:35.181Z,98450.53
2022-07-25T02:17:20.729Z,98448.25
2022-07-25T02:20:06.944Z,98460.63
2022-07-25T02:22:52.410Z,98295.91
2022-07-25T02:25:38.326Z,98358.63
2022-07-25T02:28:23.662Z,98401.63
2022-07-25T02:31:09.729Z,98467.94
2022-07-25T02:33:54.870Z,98334.22
2022-07-25T02:36:40.076Z,98317.59
2022-07-25T02:39:25.584Z,98309.19
2022-07-25T02:42:10.722Z,98291.69
2022-07-25T02:44:55.991Z,98462.56
2022-07-25T02:47:41.137Z,98428.53
2022-07-25T02:50:26.652Z,98285.59
2022-07-25T02:53:11.947Z,98287.06
2022-07-25T02:55:57.181Z,98396.03
2022-07-25T02:58:44.156Z,98443.09
2022-07-25T03:01:29.934Z,98454.41
2022-07-25T03:04:15.519Z,98455.75
2022-07-25T03:07:02.361Z,98453.28
2022-07-25T03:09:47.549Z,98314.69
2022-07-25T03:12:33.190Z,98442.56
2022-07-25T03:15:18.544Z,98470.53
2022-07-25T03:18:03.934Z,98268.44
2022-07-25T03:20:49.760Z,98290.81
2022-07-25T03:23:35.241Z,98412.25
2022-07-25T03:26:21.072Z,98288.00
2022-07-25T03:29:06.605Z,98425.53
2022-07-25T03:31:51.846Z,98464.84
2022-07-25T03:34:37.447Z,98284.31
2022-07-25T03:37:23.008Z,98300.25
2022-07-25T03:40:09.885Z,98487.81
2022-07-25T03:42:55.648Z,98300.63
2022-07-25T03:45:40.966Z,98392.50
2022-07-25T03:48:26.338Z,98473.03
2022-07-25T03:51:11.639Z,98320.19
2022-07-25T03:54:03.087Z,98480.28
2022-07-25T03:56:50.407Z,98332.88
2022-07-25T03:59:35.820Z,98471.47
2022-07-25T04:02:21.210Z,98289.25
2022-07-25T04:05:08.119Z,98295.34
2022-07-25T04:07:53.402Z,98470.50
2022-07-25T04:10:38.749Z,98306.34
2022-07-25T04:13:24.157Z,98301.50
2022-07-25T04:16:14.600Z,98467.88
2022-07-25T04:19:05.153Z,98438.97
2022-07-25T04:21:52.083Z,98469.13
2022-07-25T04:24:37.626Z,98457.22
2022-07-25T04:27:22.922Z,98457.72
2022-07-25T04:30:08.741Z,98463.78
2022-07-25T04:32:54.309Z,98324.22
2022-07-25T04:35:40.129Z,98286.06
2022-07-25T04:38:25.724Z,98426.09
2022-07-25T04:41:11.677Z,98424.78
2022-07-25T04:43:57.223Z,98253.81
2022-07-25T04:46:42.576Z,98312.25
2022-07-25T04:49:27.833Z,98313.59
2022-07-25T04:52:13.109Z,98283.22
2022-07-25T04:54:58.405Z,98454.09
2022-07-25T04:57:43.864Z,98452.81
2022-07-25T05:00:29.560Z,98437.56
2022-07-25T05:03:14.644Z,98283.31
2022-07-25T05:06:00.110Z,98334.66
2022-07-25T05:08:45.406Z,98442.66
2022-07-25T05:11:30.900Z,98429.56
2022-07-25T05:14:16.333Z,98460.66
2022-07-25T05:17:01.608Z,98296.03
2022-07-25T05:19:47.057Z,98267.13
2022-07-25T05:22:32.492Z,98405.81
2022-07-25T05:25:18.898Z,98428.69
2022-07-25T05:28:04.567Z,98302.28
2022-07-25T05:30:50.106Z,98318.78
2022-07-25T05:33:35.825Z,98415.28
2022-07-25T05:36:20.997Z,98265.56
2022-07-25T05:39:06.880Z,98406.72
2022-07-25T05:41:52.315Z,98407.16
2022-07-25T05:44:37.623Z,98296.34
2022-07-25T05:47:23.102Z,98340.25
2022-07-25T05:50:09.061Z,98268.66
2022-07-25T05:52:54.632Z,98402.13
2022-07-25T05:55:40.226Z,98393.56
2022-07-25T05:58:29.863Z,98262.69
2022-07-25T06:01:16.161Z,98403.47
2022-07-25T06:04:01.914Z,98270.22
2022-07-25T06:06:53.468Z,98390.00
2022-07-25T06:09:39.127Z,98379.97
2022-07-25T06:12:24.769Z,98401.13
2022-07-25T06:15:12.556Z,98410.72
2022-07-25T06:18:08.201Z,98274.38
2022-07-25T06:20:53.662Z,98380.31
2022-07-25T06:23:39.057Z,98341.03
2022-07-25T06:26:24.841Z,98331.72
2022-07-25T06:29:10.392Z,98285.94
2022-07-25T06:31:56.084Z,98415.19
2022-07-25T06:34:42.065Z,98411.38
2022-07-25T06:37:28.071Z,98420.81
2022-07-25T06:40:14.666Z,98383.28
2022-07-25T06:43:00.711Z,98401.41
2022-07-25T06:45:47.690Z,98404.34
2022-07-25T06:48:33.904Z,98268.78
2022-07-25T06:51:20.968Z,98262.00
2022-07-25T06:54:07.259Z,98405.22
2022-07-25T06:56:53.430Z,98369.69
2022-07-25T06:59:38.982Z,98406.16
2022-07-25T07:02:24.743Z,98305.69
2022-07-25T07:05:10.080Z,98249.91
2022-07-25T07:07:55.575Z,98308.78
2022-07-25T07:10:42.671Z,98394.06
2022-07-25T07:13:27.818Z,98244.00
2022-07-25T07:16:13.693Z,98370.75
2022-07-25T07:18:59.163Z,98256.91
2022-07-25T07:21:45.591Z,98393.72
2022-07-25T07:24:31.632Z,98278.00
2022-07-25T07:27:16.901Z,98256.28
2022-07-25T07:30:05.308Z,98258.88
2022-07-25T07:32:52.382Z,98391.28
2022-07-25T07:35:37.715Z,98388.53
2022-07-25T07:38:24.097Z,98255.94
2022-07-25T07:41:09.577Z,98362.88
2022-07-25T07:43:56.498Z,98390.75
2022-07-25T07:46:42.358Z,98259.44
2022-07-25T07:49:27.645Z,98395.47
2022-07-25T07:52:12.911Z,98327.88
2022-07-25T07:55:17.111Z,98389.31
2022-07-25T07:58:03.313Z,98393.56
2022-07-25T08:00:51.061Z,98361.88
2022-07-25T08:03:36.661Z,98378.47
2022-07-25T08:06:22.087Z,98248.28
2022-07-25T08:09:07.611Z,98234.84
2022-07-25T08:11:53.569Z,98307.53
2022-07-25T08:14:39.170Z,98299.69
2022-07-25T08:17:28.490Z,98334.53
2022-07-25T08:20:35.754Z,98375.84
2022-07-25T08:23:20.185Z,98371.84
2022-07-25T08:26:06.590Z,98373.06
2022-07-25T08:29:04.919Z,98262.22
2022-07-25T08:31:57.548Z,98379.31
2022-07-25T08:34:42.936Z,98398.13
2022-07-25T08:37:28.721Z,98378.59
2022-07-25T08:40:16.813Z,98350.38
2022-07-25T08:43:04.399Z,98326.25
2022-07-25T08:45:52.116Z,98370.38
2022-07-25T08:48:39.073Z,98394.25
2022-07-25T08:51:25.165Z,98264.91
2022-07-25T08:54:11.010Z,98349.84
2022-07-25T08:56:56.838Z,98314.59
2022-07-25T08:59:42.947Z,98343.19
2022-07-25T09:02:29.385Z,98376.53
2022-07-25T09:05:14.973Z,98374.38
2022-07-25T09:08:17.985Z,98376.53
2022-07-25T09:11:04.002Z,98373.88
2022-07-25T09:13:58.297Z,98362.88
2022-07-25T09:16:45.586Z,98357.78
2022-07-25T09:19:31.605Z,98378.63
2022-07-25T09:22:16.918Z,98242.72
2022-07-25T09:25:02.533Z,98341.06
2022-07-25T09:27:47.884Z,98236.03
2022-07-25T09:30:33.482Z,98337.44
2022-07-25T09:33:18.762Z,98352.25
2022-07-25T09:36:11.821Z,98372.31
2022-07-25T09:39:01.017Z,98248.78
2022-07-25T09:41:46.673Z,98228.97
2022-07-25T09:44:32.282Z,98365.19
2022-07-25T09:47:17.912Z,98224.91
2022-07-25T09:50:04.264Z,98345.41
2022-07-25T09:52:55.591Z,98364.16
2022-07-25T09:55:41.299Z,98355.03
2022-07-25T09:58:28.347Z,98228.13
2022-07-25T10:01:20.539Z,98266.72
2022-07-25T10:04:21.225Z,98207.28
2022-07-25T10:07:12.661Z,98246.31
2022-07-25T10:09:59.802Z,98343.78
2022-07-25T10:13:11.079Z,98333.56
2022-07-25T10:15:56.807Z,98339.59
2022-07-25T10:18:49.755Z,98200.91
2022-07-25T10:21:35.528Z,98193.69
2022-07-25T10:24:20.984Z,98300.34
2022-07-25T10:27:11.549Z,98191.09
2022-07-25T10:29:57.026Z,98186.88
2022-07-25T10:33:02.071Z,98313.56
2022-07-25T10:35:47.605Z,98309.25
2022-07-25T10:38:33.569Z,98317.72
2022-07-25T10:41:19.268Z,98165.00
2022-07-25T10:44:05.427Z,98316.78
2022-07-25T10:46:51.346Z,98200.91
2022-07-25T10:49:50.114Z,98301.91
2022-07-25T10:53:00.746Z,98304.13
2022-07-25T10:56:05.641Z,98218.00
2022-07-25T10:58:53.015Z,98312.34
2022-07-25T11:01:38.470Z,98304.50
2022-07-25T11:04:24.179Z,98220.22
2022-07-25T11:07:14.030Z,98301.00
2022-07-25T11:10:02.275Z,98155.91
2022-07-25T11:12:48.261Z,98284.28
2022-07-25T11:15:33.749Z,98174.53
2022-07-25T11:18:19.405Z,98272.56
2022-07-25T11:21:06.887Z,98146.13
2022-07-25T11:23:53.025Z,98251.94
2022-07-25T11:26:53.008Z,98141.38
2022-07-25T11:29:39.167Z,98270.06
2022-07-25T11:32:24.808Z,98149.31
2022-07-25T11:35:11.537Z,98158.63
2022-07-25T11:37:59.016Z,98141.63
2022-07-25T11:40:45.156Z,98233.63
2022-07-25T11:43:30.924Z,98262.88
2022-07-25T11:46:18.533Z,98152.94
2022-07-25T11:49:06.314Z,98177.34
2022-07-25T11:51:52.004Z,98248.59
2022-07-25T11:54:37.289Z,98246.47
2022-07-25T11:57:25.402Z,98243.69
2022-07-25T12:00:22.384Z,98108.69
2022-07-25T12:03:19.142Z,98128.97
2022-07-25T12:06:12.525Z,98143.41
2022-07-25T12:08:58.106Z,98226.81
2022-07-25T12:11:44.105Z,98239.66
2022-07-25T12:14:35.150Z,98095.81
2022-07-25T12:17:20.813Z,98114.47
2022-07-25T12:20:13.268Z,98226.47
2022-07-25T12:23:01.920Z,98184.78
2022-07-25T12:25:48.022Z,98226.44
2022-07-25T12:28:33.881Z,98087.13
2022-07-25T12:31:19.805Z,98222.97
2022-07-25T12:34:05.381Z,98223.81
2022-07-25T12:36:50.798Z,98185.25
2022-07-25T12:39:36.754Z,98091.84
2022-07-25T12:42:22.526Z,98069.22
2022-07-25T12:45:08.785Z,98191.19
2022-07-25T12:47:54.467Z,98201.69
2022-07-25T12:50:39.795Z,98197.50
2022-07-25T12:53:25.537Z,98086.97
2022-07-25T12:56:10.920Z,98137.16
2022-07-25T12:58:56.221Z,98079.69
2022-07-25T13:01:41.663Z,98190.91
2022-07-25T13:04:27.217Z,98183.78
2022-07-25T13:07:13.833Z,98185.84
2022-07-25T13:09:59.570Z,98052.31
2022-07-25T13:12:45.501Z,98073.69
2022-07-25T13:15:31.119Z,98150.56
2022-07-25T13:18:16.558Z,98044.31
2022-07-25T13:21:03.530Z,98058.06
2022-07-25T13:23:49.086Z,98046.63
2022-07-25T13:26:35.575Z,98167.19
2022-07-25T13:29:20.964Z,98144.22
2022-07-25T13:32:06.407Z,98150.09
2022-07-25T13:34:51.726Z,98178.69
2022-07-25T13:37:37.039Z,98133.03
2022-07-25T13:40:22.234Z,98015.28
2022-07-25T13:43:12.862Z,98026.00
2022-07-25T13:45:58.598Z,98127.31
2022-07-25T13:48:44.557Z,98149.56
2022-07-25T13:51:30.220Z,98009.66
2022-07-25T13:54:15.569Z,98010.38
2022-07-25T13:57:02.017Z,98121.69
2022-07-25T13:59:47.530Z,98134.72
2022-07-25T14:02:32.932Z,98032.09
2022-07-25T14:05:18.333Z,97992.66
2022-07-25T14:08:03.694Z,98140.34
2022-07-25T14:10:49.142Z,97996.91
2022-07-25T14:13:35.545Z,98048.66
2022-07-25T14:16:21.037Z,98119.00
2022-07-25T14:19:06.709Z,98122.50
2022-07-25T14:21:52.388Z,98116.13
2022-07-25T14:24:37.761Z,98038.44
2022-07-25T14:27:23.717Z,98106.19
2022-07-25T14:30:09.605Z,97979.91
2022-07-25T14:32:55.054Z,97987.13
2022-07-25T14:35:40.727Z,98060.41
2022-07-25T14:38:26.153Z,97978.00
2022-07-25T14:41:13.272Z,98029.63
2022-07-25T14:43:59.502Z,98115.06
2022-07-25T14:46:45.355Z,97968.84
2022-07-25T14:49:32.701Z,98102.25
2022-07-25T14:52:18.698Z,98074.28
2022-07-25T14:55:04.746Z,97961.66
2022-07-25T14:57:50.294Z,98090.78
2022-07-25T15:00:36.242Z,98046.16
2022-07-25T15:03:21.725Z,98063.50
2022-07-25T15:06:09.775Z,97954.50
2022-07-25T15:08:55.519Z,97953.78
2022-07-25T15:11:41.360Z,97957.31
2022-07-25T15:14:26.796Z,97983.06
2022-07-25T15:17:12.993Z,98050.50
2022-07-25T15:19:58.637Z,98082.75
2022-07-25T15:22:44.102Z,98079.22
2022-07-25T15:28:37.699Z,98062.56
2022-07-25T15:31:24.736Z,97951.13
2022-07-25T15:34:12.061Z,98081.75
2022-07-25T15:36:58.542Z,98076.06
2022-07-25T15:39:45.381Z,97974.09
2022-07-25T15:42:32.121Z,97929.06
2022-07-25T15:45:36.248Z,98057.47
2022-07-25T15:48:22.157Z,97900.31
2022-07-25T15:51:07.884Z,98055.97
2022-07-25T15:53:53.266Z,97932.50
2022-07-25T15:56:39.768Z,97931.06
2022-07-25T15:59:25.347Z,97984.06
2022-07-25T16:02:13.156Z,97956.75
2022-07-25T16:04:58.441Z,98034.88
2022-07-25T16:07:44.392Z,98036.41
2022-07-25T16:10:30.977Z,97940.19
2022-07-25T16:13:16.405Z,98041.56
2022-07-25T16:16:01.986Z,98027.22
2022-07-25T16:18:47.938Z,98053.19
2022-07-25T16:21:33.633Z,98057.47
2022-07-25T16:24:19.316Z,97967.13
2022-07-25T16:27:05.582Z,98049.66
2022-07-25T16:29:51.406Z,98046.63
2022-07-25T16:32:38.379Z,98053.03
2022-07-25T16:35:24.499Z,98022.22
2022-07-25T16:38:10.066Z,98052.28
2022-07-25T16:40:55.458Z,97918.09
2022-07-25T16:43:40.969Z,98027.81
2022-07-25T16:46:28.586Z,98009.00
2022-07-25T16:49:16.781Z,98029.88
2022-07-25T16:52:02.280Z,97921.47
2022-07-25T16:54:48.232Z,97910.09
2022-07-25T16:57:33.897Z,98043.47
2022-07-25T17:00:20.177Z,98003.94
2022-07-25T17:03:06.435Z,98011.16
2022-07-25T17:05:53.918Z,97701.97
2022-07-25T17:08:39.147Z,97926.47
2022-07-25T17:11:25.621Z,97946.63
2022-07-25T17:14:10.936Z,98032.75
2022-07-25T17:16:56.297Z,97882.19
2022-07-25T17:19:41.739Z,98041.28
2022-07-25T17:22:27.311Z,97892.88
2022-07-25T17:25:12.724Z,98005.22
2022-07-25T17:27:58.379Z,97907.03
2022-07-25T17:30:44.142Z,98031.13
2022-07-25T17:33:29.328Z,98021.78
2022-07-25T17:36:14.887Z,98030.94
2022-07-25T17:39:00.217Z,98028.03
2022-07-25T17:41:45.754Z,98026.47
2022-07-25T17:44:31.037Z,98019.97
2022-07-25T17:47:17.241Z,98015.53
2022-07-25T17:50:03.964Z,97977.41
2022-07-25T17:52:50.910Z,98011.78
2022-07-25T17:55:39.007Z,97991.41
2022-07-25T17:58:24.675Z,98017.13
2022-07-25T18:01:10.673Z,97981.06
2022-07-25T18:03:56.301Z,98019.53
2022-07-25T18:06:41.869Z,98033.56
2022-07-25T18:09:27.758Z,97904.28
2022-07-25T18:12:13.255Z,97905.47
2022-07-25T18:14:58.709Z,97899.50
2022-07-25T18:17:45.410Z,98029.88
2022-07-25T18:20:31.283Z,97871.69
2022-07-25T18:23:16.625Z,97874.25
2022-07-25T18:26:02.079Z,97901.47
2022-07-25T18:28:47.694Z,98047.44
2022-07-25T18:31:33.927Z,98021.84
2022-07-25T18:34:19.310Z,98013.19
2022-07-25T18:37:05.572Z,97894.97
2022-07-25T18:39:51.265Z,97989.09
2022-07-25T18:42:37.844Z,98043.78
2022-07-25T18:45:24.080Z,97995.66
2022-07-25T18:48:10.151Z,98019.25
2022-07-25T18:50:55.346Z,98020.44
2022-07-25T18:53:44.748Z,97966.22
2022-07-25T18:56:33.085Z,97880.47
2022-07-25T18:59:18.515Z,98015.66
2022-07-25T19:02:04.212Z,97884.63
2022-07-25T19:04:49.786Z,97878.81
2022-07-25T19:07:35.516Z,97996.03
2022-07-25T19:10:21.053Z,97883.47
2022-07-25T19:13:07.401Z,98007.72
2022-07-25T19:15:53.096Z,97880.97
2022-07-25T19:18:39.259Z,98011.50
2022-07-25T19:21:25.338Z,98011.09
2022-07-25T19:24:11.391Z,97893.88
2022-07-25T19:26:57.345Z,98033.28
2022-07-25T19:29:43.615Z,97887.47
2022-07-25T19:32:29.174Z,97886.44
2022-07-25T19:35:14.853Z,98028.34
2022-07-25T19:38:00.228Z,98021.13
2022-07-25T19:40:45.926Z,97918.78
2022-07-25T19:43:31.943Z,98028.28
2022-07-25T19:46:17.695Z,98005.25
2022-07-25T19:49:07.087Z,98028.16
2022-07-25T19:51:52.603Z,97899.91
2022-07-25T19:54:39.425Z,98023.84
2022-07-25T19:57:25.274Z,97909.50
2022-07-25T20:00:11.601Z,97898.69
2022-07-25T20:02:56.944Z,97974.72
2022-07-25T20:05:42.422Z,98013.94
2022-07-25T20:08:27.767Z,98020.81
2022-07-25T20:11:13.177Z,97979.06
2022-07-25T20:13:58.559Z,97860.94
2022-07-25T20:16:43.907Z,97981.81
2022-07-25T20:19:29.143Z,97883.44
2022-07-25T20:22:14.491Z,98015.59
2022-07-25T20:24:59.915Z,97972.13
2022-07-25T20:27:45.414Z,97891.22
2022-07-25T20:30:34.830Z,97847.81
2022-07-25T20:33:22.201Z,97994.00
2022-07-25T20:36:08.347Z,98012.09
2022-07-25T20:38:54.058Z,97944.03
2022-07-25T20:41:39.639Z,97991.69
2022-07-25T20:44:25.375Z,98010.44
2022-07-25T20:47:13.548Z,97870.19
2022-07-25T20:49:58.894Z,97866.38
2022-07-25T20:52:44.130Z,98014.94
2022-07-25T20:55:31.267Z,97891.50
2022-07-25T20:58:16.658Z,98009.84
2022-07-25T21:01:01.938Z,97911.25
2022-07-25T21:03:47.413Z,98017.50
2022-07-25T21:06:32.904Z,97866.34
2022-07-25T21:09:18.733Z,98021.81
2022-07-25T21:12:04.923Z,98034.78
2022-07-25T21:14:51.083Z,98006.63
2022-07-25T21:17:36.278Z,98022.28
2022-07-25T21:20:21.777Z,97892.28
2022-07-25T21:23:07.154Z,97884.66
2022-07-25T21:25:52.599Z,97995.00
2022-07-25T21:28:38.067Z,97900.41
2022-07-25T21:31:24.704Z,98011.72
2022-07-25T21:34:10.972Z,97860.28
2022-07-25T21:36:56.263Z,97870.13
2022-07-25T21:39:42.516Z,97867.88
2022-07-25T21:42:27.968Z,98013.06
2022-07-25T21:45:13.234Z,98048.13
2022-07-25T21:47:58.664Z,97848.03
2022-07-25T21:50:47.989Z,97998.63
2022-07-25T21:53:34.968Z,97959.94
2022-07-25T21:56:20.690Z,97882.47
2022-07-25T21:59:06.953Z,97995.19
2022-07-25T22:01:52.618Z,98004.63
2022-07-25T22:04:40.111Z,97900.94
2022-07-25T22:07:25.498Z,98009.63
2022-07-25T22:10:13.219Z,98007.44
2022-07-25T22:12:58.938Z,97976.88
2022-07-25T22:15:44.563Z,97861.22
2022-07-25T22:18:30.885Z,97969.56
2022-07-25T22:21:17.868Z,97997.09
2022-07-25T22:24:05.804Z,97968.69
2022-07-25T22:26:51.185Z,97868.75
2022-07-25T22:29:38.390Z,98003.59
2022-07-25T22:32:24.013Z,97961.34
2022-07-25T22:35:09.901Z,97762.75
2022-07-25T22:37:55.409Z,97846.31
2022-07-25T22:40:41.482Z,98019.63
2022-07-25T22:43:57.053Z,98002.75
2022-07-25T22:46:33.150Z,97989.91
2022-07-25T22:49:18.624Z,97932.22
2022-07-25T22:52:05.310Z,98024.88
2022-07-25T22:54:50.943Z,97817.84
2022-07-25T22:57:37.816Z,97854.00
2022-07-25T23:00:23.367Z,97981.00
2022-07-25T23:03:08.759Z,97948.44
2022-07-25T23:05:54.094Z,97931.00
2022-07-25T23:08:42.386Z,97957.59
2022-07-25T23:11:28.100Z,97964.09
2022-07-25T23:14:13.790Z,97813.81
2022-07-25T23:17:17.660Z,97956.34
2022-07-25T23:20:04.666Z,97809.56
2022-07-25T23:22:50.453Z,97838.38
2022-07-25T23:25:41.580Z,97811.91
2022-07-25T23:28:27.251Z,97811.91
2022-07-25T23:31:13.012Z,97953.47
2022-07-25T23:33:58.518Z,97816.91
2022-07-25T23:36:43.820Z,97928.69
2022-07-25T23:39:29.680Z,97994.09
2022-07-25T23:42:15.256Z,97912.09
2022-07-25T23:45:00.614Z,97931.44
2022-07-25T23:47:45.986Z,97954.22
2022-07-25T23:50:31.978Z,97947.69
2022-07-25T23:53:17.432Z,97957.53
2022-07-25T23:56:02.813Z,97941.72
2022-07-25T23:58:49.983Z,97927.09
